Time;durP1;ratioP1;P1;durP2;ratioP2;P2;SDS_P1;SDS_P2;PMS_P1;PMS_P2;Temp;Humidity;BMP_temperature;BMP_pressure;BME280_temperature;BME280_humidity;BME280_pressure;Samples;Min_cycle;Max_cycle;Signal;HPM_P1;HPM_P2
2022/10/07 00:01:09;;;;;;;37.50;30.60;;;;;;;6.97;99.87;99363.11;103258;1307;22530;-82
2022/10/07 00:03:38;;;;;;;32.50;27.10;;;;;;;6.89;99.63;99358.93;103527;1305;22521;-82
2022/10/07 00:06:10;;;;;;;32.00;26.90;;;;;;;6.86;99.88;99362.16;103580;1305;22460;-82
2022/10/07 00:08:40;;;;;;;28.50;25.40;;;;;;;6.86;99.89;99360.64;103481;1307;22487;-82
2022/10/07 00:11:14;;;;;;;29.40;22.70;;;;;;;6.87;99.98;99364.90;103590;1307;22489;-82
2022/10/07 00:13:44;;;;;;;28.80;22.60;;;;;;;6.88;99.94;99365.25;103611;1305;24624;-82
2022/10/07 00:16:16;;;;;;;33.30;22.60;;;;;;;6.94;100.00;99368.21;103640;1307;24224;-82
2022/10/07 00:18:44;;;;;;;28.70;21.70;;;;;;;7.03;100.00;99365.55;103725;1303;24321;-82
2022/10/07 00:21:15;;;;;;;30.50;23.20;;;;;;;7.08;100.00;99368.20;103543;1295;22469;-81
2022/10/07 00:23:45;;;;;;;26.00;21.50;;;;;;;7.14;99.88;99365.65;103581;1301;25206;-83
2022/10/07 00:26:16;;;;;;;27.90;23.80;;;;;;;7.17;99.76;99363.77;103611;1306;25520;-81
2022/10/07 00:28:45;;;;;;;28.40;24.60;;;;;;;7.17;99.78;99363.39;103500;1285;25240;-81
2022/10/07 00:31:20;;;;;;;28.90;21.60;;;;;;;7.11;100.00;99359.03;103524;1307;23090;-82
2022/10/07 00:33:48;;;;;;;27.40;22.50;;;;;;;7.03;100.00;99359.45;103523;1285;25320;-81
2022/10/07 00:36:24;;;;;;;30.50;23.50;;;;;;;6.99;99.99;99357.05;103588;1298;25118;-81
2022/10/07 00:39:13;;;;;;;32.20;22.80;;;;;;;7.01;99.88;99356.11;103521;1307;22483;-82
2022/10/07 00:41:51;;;;;;;30.70;21.30;;;;;;;6.95;99.53;99352.79;103603;1278;25239;-84
2022/10/07 00:44:31;;;;;;;38.50;28.20;;;;;;;6.86;99.58;99351.70;103338;1307;22503;-83
2022/10/07 00:47:03;;;;;;;31.00;24.40;;;;;;;6.77;99.62;99347.89;103448;1307;22471;-81
2022/10/07 00:49:40;;;;;;;35.60;23.30;;;;;;;6.75;99.95;99345.29;103658;1282;22635;-81
2022/10/07 00:52:08;;;;;;;32.60;23.10;;;;;;;6.74;99.93;99344.31;103676;1306;24109;-81
2022/10/07 00:54:37;;;;;;;33.00;23.90;;;;;;;6.75;99.82;99344.16;103658;1298;25399;-81
2022/10/07 00:57:06;;;;;;;40.90;23.90;;;;;;;6.75;99.84;99338.48;103657;1304;22524;-81
2022/10/07 00:59:36;;;;;;;32.00;22.80;;;;;;;6.79;99.96;99336.95;103450;1307;22495;-81
2022/10/07 01:02:06;;;;;;;30.30;22.60;;;;;;;6.79;99.90;99335.39;103574;1307;22473;-81
2022/10/07 01:04:35;;;;;;;33.60;22.60;;;;;;;6.73;99.97;99333.84;103473;1307;25210;-81
2022/10/07 01:07:03;;;;;;;30.80;21.60;;;;;;;6.69;99.97;99328.67;103729;1282;25205;-81
2022/10/07 01:09:31;;;;;;;43.50;21.90;;;;;;;6.67;99.86;99328.85;103469;1307;22755;-81
2022/10/07 01:12:03;;;;;;;33.60;20.30;;;;;;;6.65;99.96;99325.64;103488;1285;25289;-80
2022/10/07 01:14:55;;;;;;;28.30;19.10;;;;;;;6.67;99.88;99326.22;103727;1282;25316;-81
2022/10/07 01:17:46;;;;;;;28.50;19.20;;;;;;;6.72;100.00;99322.30;103661;1298;22492;-81
2022/10/07 01:20:53;;;;;;;25.00;15.80;;;;;;;6.73;100.00;99320.32;103732;1290;22542;-82
2022/10/07 01:23:36;;;;;;;23.10;16.00;;;;;;;6.77;100.00;99313.77;102956;1307;23901;-81
2022/10/07 01:26:29;;;;;;;21.80;14.70;;;;;;;6.74;99.84;99315.02;103180;1312;22473;-81
2022/10/07 01:29:17;;;;;;;18.90;13.80;;;;;;;6.66;99.98;99314.16;103039;1312;25755;-81
2022/10/07 01:32:00;;;;;;;19.00;13.20;;;;;;;6.64;100.00;99309.70;103254;1313;22493;-80
2022/10/07 01:34:28;;;;;;;13.60;11.10;;;;;;;6.68;100.00;99306.41;103104;1304;23213;-80
2022/10/07 01:36:58;;;;;;;24.70;16.40;;;;;;;6.74;100.00;99306.80;102860;1291;25307;-81
2022/10/07 01:39:31;;;;;;;13.80;10.90;;;;;;;6.75;100.00;99301.56;103204;1312;22564;-80
2022/10/07 01:41:59;;;;;;;18.70;11.60;;;;;;;6.70;100.00;99296.77;103113;1303;22500;-81
2022/10/07 01:44:29;;;;;;;13.00;9.70;;;;;;;6.58;99.94;99298.29;103134;1311;22493;-81
2022/10/07 01:46:58;;;;;;;15.10;9.60;;;;;;;6.66;100.00;99292.12;103211;1291;25236;-81
2022/10/07 01:49:26;;;;;;;14.00;11.10;;;;;;;6.79;100.00;99291.94;103277;1298;25402;-81
2022/10/07 01:52:41;;;;;;;16.80;11.80;;;;;;;6.86;100.00;99289.75;103240;1311;25248;-82
2022/10/07 01:55:21;;;;;;;14.10;10.10;;;;;;;6.90;100.00;99292.63;103117;1310;22601;-81
2022/10/07 01:58:03;;;;;;;15.20;10.70;;;;;;;6.88;100.00;99293.29;103118;1312;24292;-80
2022/10/07 02:00:40;;;;;;;19.60;11.60;;;;;;;6.83;99.99;99289.98;103621;1301;22516;-81
2022/10/07 02:03:39;;;;;;;21.70;9.90;;;;;;;6.75;100.00;99292.13;103525;1307;22538;-81
2022/10/07 02:06:25;;;;;;;15.30;11.30;;;;;;;6.66;100.00;99291.48;103470;1287;22573;-81
2022/10/07 02:08:59;;;;;;;14.20;10.10;;;;;;;6.58;100.00;99292.02;103677;1282;25252;-81
2022/10/07 02:11:31;;;;;;;17.50;10.40;;;;;;;6.51;100.00;99288.46;103436;1307;22489;-80
2022/10/07 02:14:13;;;;;;;16.20;9.40;;;;;;;6.46;100.00;99287.35;103522;1285;22471;-81
2022/10/07 02:17:04;;;;;;;12.60;9.50;;;;;;;6.42;100.00;99288.33;103653;1303;23044;-81
2022/10/07 02:19:38;;;;;;;19.00;11.10;;;;;;;6.35;100.00;99283.11;103487;1305;23964;-81
2022/10/07 02:22:08;;;;;;;11.10;8.50;;;;;;;6.23;100.00;99281.36;103568;1307;24313;-81
2022/10/07 02:24:38;;;;;;;14.00;8.30;;;;;;;6.18;100.00;99281.35;103398;1307;24191;-80
2022/10/07 02:27:11;;;;;;;11.50;6.40;;;;;;;6.20;100.00;99276.98;103558;1306;24247;-80
2022/10/07 02:29:41;;;;;;;12.40;6.80;;;;;;;6.29;100.00;99276.34;103579;1282;25342;-80
2022/10/07 02:32:14;;;;;;;10.20;6.80;;;;;;;6.39;100.00;99274.17;103519;1307;24220;-80
2022/10/07 02:34:44;;;;;;;9.60;6.50;;;;;;;6.45;100.00;99270.99;103366;1306;22581;-80
2022/10/07 02:37:18;;;;;;;13.40;7.10;;;;;;;6.51;100.00;99271.27;103535;1275;23381;-81
2022/10/07 02:39:47;;;;;;;13.10;7.20;;;;;;;6.54;100.00;99270.00;103619;1285;25250;-80
2022/10/07 02:42:26;;;;;;;16.50;9.10;;;;;;;6.57;100.00;99267.36;103398;1294;23225;-81
2022/10/07 02:45:06;;;;;;;12.20;8.20;;;;;;;6.54;100.00;99267.52;103535;1299;25337;-81
2022/10/07 02:48:14;;;;;;;12.00;8.80;;;;;;;6.45;100.00;99267.83;103518;1307;22588;-81
2022/10/07 02:50:47;;;;;;;15.30;7.30;;;;;;;6.30;100.00;99267.81;103697;1304;22598;-80
2022/10/07 02:53:18;;;;;;;10.40;6.80;;;;;;;6.17;100.00;99267.66;103383;1303;22608;-80
2022/10/07 02:55:49;;;;;;;9.80;7.10;;;;;;;6.06;100.00;99267.70;103831;1292;23188;-80
2022/10/07 02:58:23;;;;;;;12.70;6.60;;;;;;;6.03;100.00;99264.09;103573;1307;24246;-80
2022/10/07 03:00:56;;;;;;;15.70;8.50;;;;;;;5.96;100.00;99261.80;103531;1292;22510;-81
2022/10/07 03:03:25;;;;;;;9.20;6.70;;;;;;;5.95;100.00;99264.49;103925;1305;22485;-81
2022/10/07 03:06:03;;;;;;;11.60;7.30;;;;;;;5.90;100.00;99261.77;104511;1289;24200;-80
2022/10/07 03:08:32;;;;;;;13.60;7.30;;;;;;;5.89;100.00;99257.77;103686;1292;23925;-81
2022/10/07 03:11:00;;;;;;;16.40;8.10;;;;;;;5.90;100.00;99259.94;103606;1307;22467;-82
2022/10/07 03:13:30;;;;;;;11.30;6.50;;;;;;;5.94;100.00;99258.05;103457;1307;22523;-81
2022/10/07 03:16:04;;;;;;;8.10;5.80;;;;;;;6.05;100.00;99256.90;103583;1306;22511;-81
2022/10/07 03:18:33;;;;;;;10.10;5.30;;;;;;;6.18;100.00;99255.23;103562;1307;22477;-80
2022/10/07 03:21:18;;;;;;;8.60;6.40;;;;;;;6.33;100.00;99255.11;103460;1307;22505;-81
2022/10/07 03:23:52;;;;;;;10.50;6.30;;;;;;;6.42;100.00;99255.95;103719;1305;22470;-81
2022/10/07 03:26:22;;;;;;;10.60;5.70;;;;;;;6.52;100.00;99251.15;103452;1307;22535;-81
2022/10/07 03:28:50;;;;;;;9.20;5.40;;;;;;;6.64;100.00;99253.52;103541;1305;22645;-81
2022/10/07 03:31:18;;;;;;;7.20;5.60;;;;;;;6.74;100.00;99249.52;103585;1299;25230;-81
2022/10/07 03:33:49;;;;;;;9.60;5.80;;;;;;;6.85;100.00;99247.27;103433;1307;25224;-81
2022/10/07 03:36:18;;;;;;;9.00;6.00;;;;;;;6.95;100.00;99249.62;103435;1307;22551;-81
2022/10/07 03:38:46;;;;;;;8.60;6.90;;;;;;;7.01;100.00;99244.91;103696;1305;22471;-80
2022/10/07 03:41:16;;;;;;;15.40;13.10;;;;;;;7.05;100.00;99247.76;103411;1301;22466;-80
2022/10/07 03:43:44;;;;;;;14.30;7.40;;;;;;;7.05;100.00;99243.78;103678;1306;24278;-80
2022/10/07 03:46:15;;;;;;;11.10;6.80;;;;;;;7.07;100.00;99241.09;103620;1282;25296;-81
2022/10/07 03:48:43;;;;;;;10.20;7.10;;;;;;;7.09;100.00;99237.31;103567;1298;22864;-80
2022/10/07 03:51:11;;;;;;;10.90;6.50;;;;;;;7.08;100.00;99236.97;103538;1307;22493;-80
2022/10/07 03:53:40;;;;;;;11.50;7.20;;;;;;;7.08;100.00;99234.86;103346;1307;22468;-81
2022/10/07 03:56:08;;;;;;;13.00;8.20;;;;;;;7.08;100.00;99235.59;103446;1307;23092;-81
2022/10/07 03:58:37;;;;;;;11.90;8.40;;;;;;;7.02;100.00;99227.77;103588;1299;25200;-82
2022/10/07 04:01:10;;;;;;;12.00;8.50;;;;;;;6.95;100.00;99225.71;103582;1301;22461;-82
2022/10/07 04:03:42;;;;;;;12.30;7.80;;;;;;;6.87;100.00;99224.56;103532;1307;22908;-80
2022/10/07 04:06:10;;;;;;;10.90;8.20;;;;;;;6.81;100.00;99224.03;103636;1307;25282;-79
2022/10/07 04:08:39;;;;;;;11.30;7.20;;;;;;;6.76;100.00;99220.59;103576;1280;22467;-80
2022/10/07 04:11:08;;;;;;;11.80;8.40;;;;;;;6.77;100.00;99215.55;103682;1298;25248;-80
2022/10/07 04:13:39;;;;;;;12.30;8.20;;;;;;;6.77;100.00;99211.88;103555;1307;25192;-80
2022/10/07 04:16:09;;;;;;;13.70;7.60;;;;;;;6.76;100.00;99211.36;103717;1283;23253;-81
2022/10/07 04:18:37;;;;;;;10.20;7.30;;;;;;;6.75;100.00;99209.85;103527;1307;25305;-81
2022/10/07 04:21:07;;;;;;;9.70;7.40;;;;;;;6.76;100.00;99208.19;103523;1307;22455;-81
2022/10/07 04:23:36;;;;;;;11.30;7.60;;;;;;;6.75;100.00;99207.86;103594;1282;22551;-81
2022/10/07 04:26:09;;;;;;;12.10;7.20;;;;;;;6.68;100.00;99204.74;103602;1305;25249;-80
2022/10/07 04:28:41;;;;;;;11.60;6.90;;;;;;;6.65;100.00;99200.77;103562;1291;25213;-80
2022/10/07 04:31:16;;;;;;;13.30;7.40;;;;;;;6.66;100.00;99196.94;103700;1307;24318;-80
2022/10/07 04:33:47;;;;;;;15.80;7.70;;;;;;;6.64;100.00;99196.79;103680;1306;22467;-81
2022/10/07 04:36:19;;;;;;;17.20;6.60;;;;;;;6.63;100.00;99197.91;103509;1307;25233;-81
2022/10/07 04:38:54;;;;;;;10.60;6.30;;;;;;;6.68;100.00;99197.45;103525;1292;22500;-81
2022/10/07 04:41:25;;;;;;;9.00;5.90;;;;;;;6.72;100.00;99191.85;103757;1305;22538;-81
2022/10/07 04:43:53;;;;;;;7.00;5.70;;;;;;;6.77;100.00;99190.32;103507;1307;22481;-81
2022/10/07 04:46:27;;;;;;;7.30;5.80;;;;;;;6.84;100.00;99186.58;103815;1305;22485;-81
2022/10/07 04:49:05;;;;;;;11.60;6.40;;;;;;;6.89;100.00;99187.77;103842;1298;22501;-81
2022/10/07 04:51:34;;;;;;;9.40;5.80;;;;;;;6.91;100.00;99189.54;103694;1305;22674;-81
2022/10/07 04:54:02;;;;;;;9.10;5.70;;;;;;;6.95;100.00;99191.54;103681;1282;23404;-81
2022/10/07 04:56:48;;;;;;;8.40;5.00;;;;;;;6.98;100.00;99190.66;103674;1282;22463;-82
2022/10/07 04:59:18;;;;;;;10.50;5.80;;;;;;;7.01;100.00;99186.75;103608;1296;24257;-81
2022/10/07 05:01:50;;;;;;;8.90;5.30;;;;;;;7.08;100.00;99186.48;103657;1300;22621;-81
2022/10/07 05:04:19;;;;;;;6.80;5.10;;;;;;;7.13;100.00;99184.59;103680;1304;22467;-81
2022/10/07 05:06:47;;;;;;;8.20;5.10;;;;;;;7.18;100.00;99184.17;103494;1277;25281;-81
2022/10/07 05:09:15;;;;;;;7.30;5.10;;;;;;;7.20;100.00;99181.41;103480;1307;22539;-81
2022/10/07 05:11:45;;;;;;;7.50;5.10;;;;;;;7.21;100.00;99178.81;103660;1282;25292;-81
2022/10/07 05:14:20;;;;;;;9.40;5.20;;;;;;;7.25;100.00;99175.91;103561;1307;22483;-81
2022/10/07 05:16:49;;;;;;;12.20;5.20;;;;;;;7.28;100.00;99171.63;103575;1302;25220;-81
2022/10/07 05:19:18;;;;;;;8.30;5.20;;;;;;;7.31;100.00;99173.70;103423;1307;22518;-81
2022/10/07 05:21:48;;;;;;;6.90;5.00;;;;;;;7.35;100.00;99176.33;103662;1306;25308;-81
2022/10/07 05:24:16;;;;;;;7.80;5.20;;;;;;;7.40;100.00;99170.34;103663;1291;22495;-81
2022/10/07 05:26:44;;;;;;;6.80;5.50;;;;;;;7.44;100.00;99172.12;103374;1301;22481;-81
2022/10/07 05:29:12;;;;;;;7.60;5.60;;;;;;;7.47;100.00;99172.29;103652;1303;22486;-81
2022/10/07 05:31:43;;;;;;;8.60;5.10;;;;;;;7.51;100.00;99170.98;103465;1307;22544;-81
2022/10/07 05:34:14;;;;;;;9.10;5.10;;;;;;;7.55;100.00;99168.20;103628;1284;25230;-81
2022/10/07 05:36:43;;;;;;;7.30;4.70;;;;;;;7.61;100.00;99166.93;103526;1307;22538;-81
2022/10/07 05:39:11;;;;;;;8.60;5.60;;;;;;;7.67;100.00;99174.20;103357;1291;22571;-81
2022/10/07 05:42:03;;;;;;;11.50;8.30;;;;;;;7.73;100.00;99169.56;103389;1307;22478;-81
2022/10/07 05:44:36;;;;;;;33.00;16.60;;;;;;;7.78;100.00;99165.44;103560;1307;25210;-81
2022/10/07 05:47:05;;;;;;;23.40;11.70;;;;;;;7.86;100.00;99166.98;103693;1282;25317;-81
2022/10/07 05:49:32;;;;;;;17.70;11.00;;;;;;;7.94;100.00;99162.57;103486;1307;27030;-82
2022/10/07 05:52:01;;;;;;;18.50;9.30;;;;;;;8.03;100.00;99165.67;103519;1285;24662;-81
2022/10/07 05:54:32;;;;;;;34.40;24.80;;;;;;;8.12;100.00;99158.27;103721;1305;22467;-80
2022/10/07 05:57:00;;;;;;;44.00;32.60;;;;;;;8.22;100.00;99163.27;103745;1307;25282;-80
2022/10/07 05:59:30;;;;;;;29.50;21.10;;;;;;;8.30;100.00;99163.61;103510;1285;22470;-80
2022/10/07 06:01:58;;;;;;;22.40;16.00;;;;;;;8.36;100.00;99164.41;103544;1288;26499;-81
2022/10/07 06:04:28;;;;;;;18.30;13.60;;;;;;;8.43;100.00;99162.70;103728;1287;22525;-81
2022/10/07 06:06:56;;;;;;;26.60;14.70;;;;;;;8.54;100.00;99161.36;103495;1304;22533;-81
2022/10/07 06:15:05;;;;;;;23.00;11.60;;;;;;;9.02;100.00;99160.91;103625;1288;25197;-82
2022/10/07 06:17:33;;;;;;;10.80;6.60;;;;;;;9.19;100.00;99158.62;103555;1307;22503;-82
2022/10/07 06:20:02;;;;;;;9.40;5.60;;;;;;;9.39;100.00;99160.90;103613;1306;22471;-81
2022/10/07 06:22:30;;;;;;;8.70;5.00;;;;;;;9.63;100.00;99159.36;103421;1306;23883;-82
2022/10/07 06:25:00;;;;;;;8.50;4.70;;;;;;;9.86;100.00;99159.20;103404;1292;23878;-82
2022/10/07 06:27:30;;;;;;;10.30;5.50;;;;;;;10.10;100.00;99153.36;103720;1307;25253;-81
2022/10/07 06:29:58;;;;;;;11.10;5.10;;;;;;;10.30;100.00;99152.05;103495;1307;22486;-81
2022/10/07 06:32:31;;;;;;;11.70;5.70;;;;;;;10.48;100.00;99152.52;103686;1305;25337;-80
2022/10/07 06:35:00;;;;;;;7.90;4.90;;;;;;;10.63;100.00;99155.73;103442;1302;22467;-81
2022/10/07 06:37:31;;;;;;;11.20;5.70;;;;;;;10.77;100.00;99156.33;103412;1307;23247;-81
2022/10/07 06:39:59;;;;;;;12.10;5.80;;;;;;;10.93;100.00;99158.33;103726;1306;22542;-81
2022/10/07 06:42:30;;;;;;;11.60;4.90;;;;;;;11.05;100.00;99154.86;103657;1306;22571;-80
2022/10/07 06:45:18;;;;;;;10.00;5.70;;;;;;;11.19;100.00;99150.76;103500;1295;22486;-81
2022/10/07 06:47:47;;;;;;;7.50;6.00;;;;;;;11.27;100.00;99145.98;103685;1288;22544;-81
2022/10/07 06:50:15;;;;;;;11.60;5.70;;;;;;;11.34;100.00;99141.82;103684;1305;22551;-82
2022/10/07 06:52:43;;;;;;;11.00;6.10;;;;;;;11.42;100.00;99136.99;103514;1292;22501;-82
2022/10/07 06:55:11;;;;;;;10.80;5.50;;;;;;;11.51;100.00;99141.73;103549;1293;24234;-82
2022/10/07 06:57:40;;;;;;;12.20;5.60;;;;;;;11.60;100.00;99140.68;103660;1281;22467;-82
2022/10/07 07:00:14;;;;;;;10.60;5.90;;;;;;;11.68;100.00;99138.70;103701;1289;23577;-82
2022/10/07 07:02:45;;;;;;;10.80;6.30;;;;;;;11.76;100.00;99139.27;103698;1306;22501;-82
2022/10/07 07:05:14;;;;;;;10.10;5.50;;;;;;;11.84;100.00;99136.02;103521;1308;22702;-82
2022/10/07 07:07:43;;;;;;;9.90;6.00;;;;;;;11.93;100.00;99137.89;103691;1295;25306;-82
2022/10/07 07:10:11;;;;;;;9.10;5.70;;;;;;;12.01;100.00;99137.58;103496;1297;22611;-82
2022/10/07 07:12:42;;;;;;;10.50;6.00;;;;;;;12.12;100.00;99139.73;103685;1307;22483;-82
2022/10/07 07:15:10;;;;;;;11.20;6.60;;;;;;;12.20;100.00;99144.87;103435;1300;25198;-82
2022/10/07 07:17:39;;;;;;;11.10;6.40;;;;;;;12.26;99.78;99149.50;103565;1288;25346;-82
2022/10/07 07:20:08;;;;;;;11.60;6.60;;;;;;;12.30;99.94;99138.61;103651;1307;22793;-82
2022/10/07 07:22:38;;;;;;;9.70;6.50;;;;;;;12.37;99.67;99135.55;103585;1307;22465;-82
2022/10/07 07:25:08;;;;;;;8.90;6.10;;;;;;;12.42;98.99;99134.27;103473;1288;22498;-82
2022/10/07 07:27:37;;;;;;;8.20;6.30;;;;;;;12.48;99.14;99139.05;103512;1307;22660;-82
2022/10/07 07:30:07;;;;;;;12.80;7.70;;;;;;;12.54;97.77;99137.38;103587;1307;22465;-82
2022/10/07 07:32:35;;;;;;;14.60;7.50;;;;;;;12.54;97.78;99134.24;103488;1306;23276;-82
2022/10/07 07:35:04;;;;;;;12.60;7.90;;;;;;;12.57;97.78;99134.05;103547;1292;22492;-82
2022/10/07 07:37:32;;;;;;;13.00;8.10;;;;;;;12.61;97.92;99133.98;103506;1305;22581;-82
2022/10/07 07:40:00;;;;;;;14.30;7.90;;;;;;;12.68;97.48;99134.46;103421;1291;25260;-82
2022/10/07 07:42:30;;;;;;;13.70;8.70;;;;;;;12.76;97.07;99136.02;103684;1282;22568;-82
2022/10/07 07:44:59;;;;;;;12.10;8.20;;;;;;;12.81;96.08;99135.66;103697;1307;25205;-82
2022/10/07 07:47:27;;;;;;;12.70;8.60;;;;;;;12.83;96.53;99136.07;103362;1307;24480;-82
2022/10/07 07:49:55;;;;;;;12.80;7.50;;;;;;;12.88;97.01;99134.30;103435;1310;22497;-82
2022/10/07 07:52:28;;;;;;;10.70;8.00;;;;;;;12.94;95.79;99129.33;103700;1288;25205;-82
2022/10/07 07:54:57;;;;;;;14.00;8.10;;;;;;;13.02;95.92;99127.31;103726;1288;25178;-83
2022/10/07 07:57:27;;;;;;;13.40;8.00;;;;;;;13.12;96.50;99128.30;103553;1288;25200;-83
2022/10/07 07:59:57;;;;;;;17.10;8.20;;;;;;;13.21;96.44;99128.44;103647;1306;24492;-83
2022/10/07 08:02:25;;;;;;;12.60;8.20;;;;;;;13.28;96.34;99124.06;103624;1304;22500;-82
2022/10/07 08:04:53;;;;;;;12.80;8.30;;;;;;;13.34;96.14;99122.86;104005;1310;22624;-82
2022/10/07 08:07:22;;;;;;;17.00;8.50;;;;;;;13.44;95.65;99123.30;106959;1288;22463;-82
2022/10/07 08:09:50;;;;;;;12.10;8.30;;;;;;;13.53;95.47;99120.16;105235;1304;23176;-82
2022/10/07 08:12:19;;;;;;;14.80;9.00;;;;;;;13.66;95.56;99116.61;103595;1307;24300;-81
2022/10/07 08:14:48;;;;;;;15.50;8.90;;;;;;;13.74;94.54;99114.47;103572;1301;22719;-83
2022/10/07 08:17:16;;;;;;;12.50;8.70;;;;;;;13.78;94.67;99110.95;103539;1307;25330;-82
2022/10/07 08:19:44;;;;;;;15.00;10.10;;;;;;;13.84;95.23;99111.68;103527;1291;22863;-82
2022/10/07 08:22:16;;;;;;;16.70;10.40;;;;;;;13.90;94.90;99108.69;103489;1310;22473;-82
2022/10/07 08:24:47;;;;;;;12.90;9.80;;;;;;;14.00;94.65;99112.29;103602;1288;22435;-82
2022/10/07 08:27:15;;;;;;;13.80;9.40;;;;;;;14.10;94.11;99112.74;103614;1307;22539;-82
2022/10/07 08:29:43;;;;;;;12.90;9.70;;;;;;;14.21;94.32;99112.27;103721;1306;25201;-82
2022/10/07 08:32:11;;;;;;;16.10;9.60;;;;;;;14.28;93.00;99104.64;103622;1305;22469;-82
2022/10/07 08:34:39;;;;;;;13.70;9.40;;;;;;;14.32;93.02;99106.27;103685;1307;22529;-82
2022/10/07 08:37:06;;;;;;;15.80;9.70;;;;;;;14.38;92.44;99105.47;103613;1295;25311;-82
2022/10/07 08:39:35;;;;;;;15.00;9.00;;;;;;;14.45;92.90;99105.25;103611;1307;24292;-82
2022/10/07 08:42:12;;;;;;;15.80;10.00;;;;;;;14.55;92.21;99100.19;103626;1285;24219;-82
2022/10/07 08:44:48;;;;;;;12.50;8.90;;;;;;;14.62;91.56;99097.11;103648;1307;22473;-82
2022/10/07 08:47:19;;;;;;;14.70;9.30;;;;;;;14.69;92.36;99099.27;103411;1310;22702;-83
2022/10/07 08:50:18;;;;;;;13.70;9.40;;;;;;;14.78;92.09;99097.31;103641;1295;22482;-82
2022/10/07 08:53:03;;;;;;;10.40;9.40;;;;;;;14.85;92.40;99092.77;103525;1304;22498;-83
2022/10/07 08:56:07;;;;;;;10.70;8.50;;;;;;;14.95;92.46;99090.58;103549;1313;23782;-84
2022/10/07 08:58:54;;;;;;;14.00;8.80;;;;;;;15.09;91.71;99088.11;103197;1291;22475;-83
2022/10/07 09:01:46;;;;;;;11.60;9.50;;;;;;;15.20;91.27;99084.39;103720;1310;23827;-83
2022/10/07 09:04:24;;;;;;;11.80;9.00;;;;;;;15.31;91.51;99078.27;103739;1313;24240;-84
2022/10/07 09:07:01;;;;;;;11.30;8.80;;;;;;;15.42;91.09;99080.59;105205;1312;22757;-81
2022/10/07 09:09:38;;;;;;;18.80;9.90;;;;;;;15.53;91.20;99079.02;105142;1293;22483;-82
2022/10/07 09:12:16;;;;;;;13.60;9.70;;;;;;;15.65;90.94;99070.42;104487;1313;24250;-81
2022/10/07 09:14:46;;;;;;;12.50;9.40;;;;;;;15.83;91.28;99069.04;103267;1312;23922;-82
2022/10/07 09:17:24;;;;;;;10.70;9.40;;;;;;;15.98;91.15;99072.17;103352;1314;22743;-84
2022/10/07 09:20:01;;;;;;;18.00;8.40;;;;;;;16.10;90.63;99070.78;103752;1313;22492;-83
2022/10/07 09:22:33;;;;;;;13.20;9.40;;;;;;;16.21;90.46;99070.92;104269;1313;23884;-82
2022/10/07 09:25:20;;;;;;;11.20;8.50;;;;;;;16.32;90.47;99066.08;104508;1296;22512;-83
2022/10/07 09:27:50;;;;;;;12.30;9.30;;;;;;;16.45;89.94;99063.39;104235;1313;23141;-83
2022/10/07 09:30:21;;;;;;;15.20;8.10;;;;;;;16.55;88.57;99061.89;104034;1291;22481;-82
2022/10/07 09:32:53;;;;;;;11.50;8.30;;;;;;;16.66;87.55;99059.56;103804;1294;25499;-82
2022/10/07 09:35:24;;;;;;;12.70;8.10;;;;;;;16.81;88.42;99049.95;103983;1306;24929;-83
2022/10/07 09:37:57;;;;;;;30.30;8.40;;;;;;;16.97;88.59;99051.55;104351;1307;22500;-82
2022/10/07 09:43:31;;;;;;;10.90;8.20;;;;;;;17.22;87.66;99045.84;103654;1307;22483;-83
2022/10/07 09:46:00;;;;;;;14.50;8.90;;;;;;;17.32;86.69;99037.92;103808;1305;25257;-81
2022/10/07 09:48:33;;;;;;;16.10;8.90;;;;;;;17.41;85.72;99039.14;103777;1307;23880;-82
2022/10/07 09:51:17;;;;;;;12.20;8.40;;;;;;;17.50;86.29;99033.27;103739;1307;25282;-84
2022/10/07 09:54:02;;;;;;;15.70;8.20;;;;;;;17.66;86.42;99035.26;103703;1307;22525;-83
2022/10/07 09:56:40;;;;;;;13.00;8.50;;;;;;;17.77;85.48;99033.98;103590;1304;22603;-85
2022/10/07 09:59:21;;;;;;;13.70;8.00;;;;;;;17.89;84.96;99030.58;103647;1303;22905;-83
2022/10/07 10:01:58;;;;;;;18.10;8.70;;;;;;;17.96;84.03;99029.37;103667;1307;22699;-82
2022/10/07 10:04:32;;;;;;;10.90;8.10;;;;;;;18.03;82.78;99025.79;103782;1283;22430;-82
2022/10/07 10:07:19;;;;;;;16.30;8.20;;;;;;;18.09;83.28;99021.61;103952;1305;136184;-83
2022/10/07 10:10:02;;;;;;;12.10;7.70;;;;;;;18.16;83.34;99018.73;103565;1307;24272;-83
2022/10/07 10:12:43;;;;;;;13.20;8.00;;;;;;;18.28;83.79;99015.66;103580;1307;22474;-83
2022/10/07 10:15:24;;;;;;;11.00;7.60;;;;;;;18.43;83.07;99009.45;103582;1306;22619;-84
2022/10/07 10:17:55;;;;;;;9.90;7.70;;;;;;;18.59;83.47;99008.63;103618;1295;25204;-83
2022/10/07 10:20:45;;;;;;;8.40;7.40;;;;;;;18.68;82.45;98999.70;103609;1307;24392;-83
2022/10/07 10:23:33;;;;;;;11.60;7.40;;;;;;;18.77;82.48;99003.38;103612;1307;25278;-84
2022/10/07 10:26:25;;;;;;;9.30;7.40;;;;;;;18.87;81.47;99000.29;103635;1304;24212;-84
2022/10/07 10:29:06;;;;;;;8.60;7.00;;;;;;;18.99;81.45;98998.33;103609;1290;25295;-83
2022/10/07 10:31:53;;;;;;;9.20;7.60;;;;;;;19.10;80.91;98990.40;103511;1307;25335;-82
2022/10/07 10:34:59;;;;;;;12.50;7.60;;;;;;;19.25;81.41;98985.15;103649;1307;24222;-82
2022/10/07 10:37:38;;;;;;;10.70;6.90;;;;;;;19.44;80.81;98977.52;103651;1305;22452;-82
2022/10/07 10:40:44;;;;;;;9.10;6.90;;;;;;;19.58;80.23;98973.61;103476;1305;22478;-82
2022/10/07 10:43:47;;;;;;;9.70;7.40;;;;;;;19.72;79.87;98968.80;103674;1307;25251;-82
2022/10/07 10:46:30;;;;;;;12.50;7.50;;;;;;;19.84;79.68;98969.52;103675;1305;23239;-83
2022/10/07 10:49:09;;;;;;;11.80;7.20;;;;;;;19.94;79.47;98961.09;103605;1307;25324;-82
2022/10/07 10:52:03;;;;;;;10.30;6.60;;;;;;;20.04;76.47;98952.38;103508;1307;22500;-82
2022/10/07 10:54:47;;;;;;;11.30;5.80;;;;;;;20.07;76.36;98950.31;103473;1303;22851;-82
2022/10/07 10:57:21;;;;;;;7.30;5.20;;;;;;;20.17;76.74;98944.20;103651;1282;22467;-82
2022/10/07 10:59:49;;;;;;;9.20;5.80;;;;;;;20.30;75.70;98947.36;103614;1295;22507;-82
2022/10/07 11:02:31;;;;;;;11.40;6.00;;;;;;;20.44;75.17;98939.77;103628;1298;22696;-82
2022/10/07 11:05:16;;;;;;;9.10;6.20;;;;;;;20.54;73.43;98938.30;103601;1303;23091;-82
2022/10/07 11:07:47;;;;;;;11.80;5.50;;;;;;;20.61;71.79;98931.16;103613;1288;25248;-81
2022/10/07 11:10:58;;;;;;;10.70;5.30;;;;;;;20.68;73.28;98927.88;103651;1307;24276;-82
2022/10/07 11:13:49;;;;;;;6.50;4.60;;;;;;;20.75;72.34;98917.10;103583;1301;25201;-82
2022/10/07 11:16:21;;;;;;;19.40;8.20;;;;;;;20.81;71.21;98911.50;103650;1292;25195;-82
2022/10/07 11:19:11;;;;;;;73.00;22.50;;;;;;;20.90;71.47;98906.38;103640;1304;22980;-82
2022/10/07 11:21:59;;;;;;;19.70;8.90;;;;;;;21.04;71.20;98905.17;103634;1295;23374;-82
2022/10/07 11:24:40;;;;;;;21.60;10.20;;;;;;;21.15;70.49;98897.73;103666;1306;22486;-82
2022/10/07 11:27:07;;;;;;;17.30;8.10;;;;;;;21.26;70.75;98894.73;103461;1307;23293;-83
2022/10/07 11:29:39;;;;;;;12.40;6.00;;;;;;;21.36;70.27;98891.58;103623;1307;22502;-82
2022/10/07 11:32:22;;;;;;;9.20;6.10;;;;;;;21.46;70.11;98889.63;103468;1307;25274;-82
2022/10/07 11:34:57;;;;;;;9.50;4.50;;;;;;;21.63;69.87;98886.15;103654;1295;22514;-82
2022/10/07 11:37:52;;;;;;;29.90;6.40;;;;;;;21.74;67.55;98880.89;103633;1298;22496;-82
2022/10/07 11:40:22;;;;;;;10.00;4.90;;;;;;;21.88;68.77;98871.95;103614;1295;22569;-82
2022/10/07 11:43:04;;;;;;;9.30;4.40;;;;;;;22.03;67.83;98867.36;103652;1304;23204;-82
2022/10/07 11:45:41;;;;;;;8.80;4.30;;;;;;;22.11;67.20;98865.76;103404;1295;23219;-82
2022/10/07 11:48:20;;;;;;;11.00;5.50;;;;;;;22.25;68.00;98864.33;103615;1304;25719;-82
2022/10/07 11:50:58;;;;;;;14.50;5.90;;;;;;;22.42;66.49;98861.86;103649;1307;22479;-83
2022/10/07 11:53:30;;;;;;;7.20;4.70;;;;;;;22.52;64.80;98859.61;103516;1307;23918;-83
2022/10/07 11:56:02;;;;;;;6.20;3.50;;;;;;;22.61;64.60;98853.33;103584;1307;22477;-83
2022/10/07 11:58:36;;;;;;;5.60;3.60;;;;;;;22.61;63.83;98847.83;103649;1297;22748;-83